createdAt,value
2022-11-01T00:04:50.598Z,4.85
2022-11-01T00:09:52.296Z,4.38
2022-11-01T00:14:53.995Z,3.95
2022-11-01T00:19:55.810Z,4.70
2022-11-01T00:24:57.485Z,5.03
2022-11-01T00:29:59.165Z,5.87
2022-11-01T00:35:00.844Z,6.45
2022-11-01T00:40:02.517Z,3.90
2022-11-01T00:45:04.505Z,4.78
2022-11-01T00:50:06.894Z,5.20
2022-11-01T00:55:09.029Z,4.88
2022-11-01T01:00:12.213Z,5.35
2022-11-01T01:05:14.215Z,4.53
2022-11-01T01:10:15.995Z,5.70
2022-11-01T01:15:17.819Z,4.80
2022-11-01T01:20:20.510Z,4.35
2022-11-01T01:25:22.595Z,4.60
2022-11-01T01:30:24.555Z,4.25
2022-11-01T01:35:26.254Z,3.63
2022-11-01T01:40:27.912Z,4.38
2022-11-01T01:45:36.735Z,4.03
2022-11-01T01:50:54.440Z,4.60
2022-11-01T01:56:12.298Z,3.92
2022-11-01T02:01:14.495Z,4.25
2022-11-01T02:11:24.044Z,3.50
2022-11-01T02:16:35.832Z,4.03
2022-11-01T02:21:47.690Z,2.80
2022-11-01T02:27:08.709Z,2.97
2022-11-01T02:32:24.226Z,4.25
2022-11-01T02:37:32.630Z,3.58
2022-11-01T02:42:42.740Z,3.15
2022-11-01T02:47:44.433Z,3.60
2022-11-01T02:52:47.162Z,3.53
2022-11-01T02:57:49.751Z,2.88
2022-11-01T03:02:57.704Z,3.00
2022-11-01T03:08:04.870Z,2.70
2022-11-01T03:13:32.477Z,2.90
2022-11-01T03:18:39.266Z,2.73
2022-11-01T03:23:55.887Z,3.40
2022-11-01T03:29:03.083Z,2.85
2022-11-01T03:34:12.172Z,3.15
2022-11-01T03:39:23.559Z,3.45
2022-11-01T03:44:26.793Z,3.40
2022-11-01T03:49:28.464Z,2.85
2022-11-01T03:54:30.153Z,2.72
2022-11-01T03:59:31.810Z,2.88
2022-11-01T04:04:33.496Z,3.53
2022-11-01T04:09:35.348Z,3.80
2022-11-01T04:14:37.009Z,2.30
2022-11-01T04:19:38.710Z,2.67
2022-11-01T04:24:40.347Z,2.20
2022-11-01T04:29:42.024Z,2.65
2022-11-01T04:34:43.679Z,3.25
2022-11-01T04:39:45.334Z,3.00
2022-11-01T04:44:47.061Z,2.97
2022-11-01T04:49:48.724Z,3.30
2022-11-01T04:54:50.453Z,2.67
2022-11-01T04:59:53.083Z,3.78
2022-11-01T05:04:54.760Z,2.67
2022-11-01T05:09:56.621Z,2.45
2022-11-01T05:14:58.310Z,2.72
2022-11-01T05:19:59.969Z,2.83
2022-11-01T05:25:01.710Z,3.10
2022-11-01T05:30:04.115Z,3.35
2022-11-01T05:35:06.049Z,2.67
2022-11-01T05:40:08.460Z,2.85
2022-11-01T05:45:10.577Z,3.17
2022-11-01T05:50:14.682Z,3.65
2022-11-01T05:55:16.413Z,2.97
2022-11-01T06:00:18.201Z,3.55
2022-11-01T06:05:19.886Z,3.00
2022-11-01T06:10:21.611Z,3.58
2022-11-01T06:15:23.632Z,3.93
2022-11-01T06:20:26.522Z,3.88
2022-11-01T06:25:28.539Z,4.15
2022-11-01T06:30:30.216Z,4.43
2022-11-01T06:35:32.537Z,4.28
2022-11-01T06:40:35.608Z,3.95
2022-11-01T06:45:37.301Z,4.75
2022-11-01T06:50:39.046Z,4.00
2022-11-01T06:55:40.738Z,3.30
2022-11-01T07:00:42.605Z,4.28
2022-11-01T07:05:44.434Z,4.15
2022-11-01T07:10:46.219Z,3.65
2022-11-01T07:15:47.879Z,4.10
2022-11-01T07:20:49.571Z,3.15
2022-11-01T07:25:54.289Z,4.22
2022-11-01T07:30:57.050Z,4.25
2022-11-01T07:36:00.171Z,3.35
2022-11-01T07:41:03.838Z,3.60
2022-11-01T07:46:05.620Z,4.23
2022-11-01T07:51:07.360Z,4.17
2022-11-01T07:56:09.226Z,3.87
2022-11-01T08:01:10.998Z,3.70
2022-11-01T08:06:12.800Z,3.65
2022-11-01T08:11:14.507Z,3.05
2022-11-01T08:16:16.210Z,4.47
2022-11-01T08:21:17.884Z,3.97
2022-11-01T08:26:19.580Z,3.47
2022-11-01T08:31:21.230Z,4.13
2022-11-01T08:36:22.910Z,4.03
2022-11-01T08:41:24.601Z,4.30
2022-11-01T08:46:26.294Z,3.75
2022-11-01T08:51:28.081Z,3.80
2022-11-01T08:56:29.759Z,4.30
2022-11-01T09:01:31.549Z,3.42
2022-11-01T09:06:36.212Z,4.95
2022-11-01T09:11:38.406Z,4.13
2022-11-01T09:16:40.273Z,5.50
2022-11-01T09:21:44.098Z,5.20
2022-11-01T09:26:45.846Z,4.47
2022-11-01T09:31:51.263Z,4.23
2022-11-01T09:36:52.909Z,5.75
2022-11-01T09:41:58.158Z,4.65
2022-11-01T09:47:03.827Z,5.90
2022-11-01T09:52:06.915Z,7.47
2022-11-01T09:57:21.231Z,6.80
2022-11-01T10:02:29.026Z,6.22
2022-11-01T10:08:13.022Z,5.25
2022-11-01T10:13:32.773Z,6.40
2022-11-01T10:19:29.774Z,6.70
2022-11-01T10:24:46.434Z,7.25
2022-11-01T10:30:01.583Z,5.93
2022-11-01T10:35:16.047Z,5.70
2022-11-01T10:40:25.723Z,5.85
2022-11-01T10:45:27.629Z,6.55
2022-11-01T10:50:30.503Z,6.65
2022-11-01T10:55:44.249Z,6.78
2022-11-01T11:00:46.681Z,7.00
2022-11-01T11:05:50.514Z,9.70
2022-11-01T11:10:52.965Z,6.73
2022-11-01T11:15:58.302Z,5.53
2022-11-01T11:21:04.999Z,5.35
2022-11-01T11:26:10.386Z,5.13
2022-11-01T11:31:22.850Z,4.88
2022-11-01T11:36:34.698Z,3.30
2022-11-01T11:41:36.618Z,4.60
2022-11-01T11:46:55.737Z,3.50
2022-11-01T11:51:57.550Z,3.50
2022-11-01T11:57:20.732Z,3.27
2022-11-01T12:02:29.634Z,4.85
2022-11-01T12:07:47.086Z,3.67
2022-11-01T12:12:52.345Z,3.33
2022-11-01T12:17:54.682Z,5.05
2022-11-01T12:23:06.061Z,3.77
2022-11-01T12:28:22.140Z,2.78
2022-11-01T12:33:52.266Z,4.47
2022-11-01T12:39:01.796Z,3.92
2022-11-01T12:44:08.004Z,3.30
2022-11-01T12:49:19.316Z,3.55
2022-11-01T12:54:30.354Z,3.73
2022-11-01T12:59:37.943Z,4.45
2022-11-01T13:04:51.470Z,4.10
2022-11-01T13:09:55.893Z,3.93
2022-11-01T13:15:49.606Z,4.10
2022-11-01T13:21:14.121Z,3.53
2022-11-01T13:26:24.387Z,3.97
2022-11-01T13:32:11.819Z,3.80
2022-11-01T13:37:31.575Z,4.15
2022-11-01T13:43:03.258Z,3.85
2022-11-01T13:48:56.012Z,3.70
2022-11-01T13:54:18.454Z,4.20
2022-11-01T13:59:51.175Z,4.40
2022-11-01T14:04:57.824Z,5.03
2022-11-01T14:09:59.597Z,4.53
2022-11-01T14:15:14.441Z,5.77
2022-11-01T14:20:16.093Z,4.90
2022-11-01T14:25:17.808Z,5.90
2022-11-01T14:30:22.727Z,6.38
2022-11-01T14:35:31.430Z,6.50
2022-11-01T14:40:43.346Z,5.20
2022-11-01T14:46:02.837Z,5.70
2022-11-01T14:51:07.213Z,5.75
2022-11-01T14:56:29.094Z,6.40
2022-11-01T15:01:30.932Z,5.30
2022-11-01T15:06:32.671Z,4.70
2022-11-01T15:11:35.139Z,4.78
2022-11-01T15:16:37.038Z,4.68
2022-11-01T15:21:47.057Z,4.35
2022-11-01T15:26:50.124Z,3.83
2022-11-01T15:31:57.852Z,3.75
2022-11-01T15:37:10.924Z,2.47
2022-11-01T15:42:30.618Z,3.42
2022-11-01T15:47:32.297Z,3.25
2022-11-01T15:52:35.261Z,2.45
2022-11-01T15:57:51.448Z,2.10
2022-11-01T16:03:15.094Z,2.40
2022-11-01T16:08:42.572Z,2.55
2022-11-01T16:13:58.298Z,2.10
2022-11-01T16:19:00.005Z,2.90
2022-11-01T16:24:14.272Z,3.90
2022-11-01T16:29:16.001Z,2.70
2022-11-01T16:34:24.266Z,2.67
2022-11-01T16:39:30.689Z,2.90
2022-11-01T16:44:32.360Z,2.55
2022-11-01T16:49:34.031Z,2.97
2022-11-01T16:54:35.705Z,2.38
2022-11-01T16:59:40.438Z,3.00
2022-11-01T17:04:42.634Z,2.53
2022-11-01T17:09:44.346Z,3.00
2022-11-01T17:14:46.009Z,3.43
2022-11-01T17:19:58.506Z,3.20
2022-11-01T17:25:00.412Z,3.80
2022-11-01T17:30:02.072Z,3.57
2022-11-01T17:35:04.254Z,3.10
2022-11-01T17:40:24.942Z,3.05
2022-11-01T17:45:26.942Z,2.50
2022-11-01T17:50:28.594Z,3.72
2022-11-01T17:55:30.276Z,4.25
2022-11-01T18:00:32.063Z,3.03
2022-11-01T18:05:33.769Z,3.33
2022-11-01T18:11:04.163Z,3.80
2022-11-01T18:16:20.404Z,4.80
2022-11-01T18:21:31.219Z,4.10
2022-11-01T18:26:32.935Z,3.70
2022-11-01T18:31:43.377Z,4.28
2022-11-01T18:37:08.807Z,3.83
2022-11-01T18:42:11.237Z,3.95
2022-11-01T18:47:32.315Z,4.60
2022-11-01T18:52:34.327Z,4.70
2022-11-01T18:57:36.074Z,4.68
2022-11-01T19:02:39.033Z,5.03
2022-11-01T19:08:09.126Z,4.83
2022-11-01T19:13:02.432Z,5.27
2022-11-01T19:18:16.421Z,4.87
2022-11-01T19:23:24.185Z,6.15
2022-11-01T19:28:33.944Z,7.22
2022-11-01T19:33:38.619Z,5.85
2022-11-01T19:38:40.415Z,5.07
2022-11-01T19:43:42.192Z,5.93
2022-11-01T19:48:45.105Z,5.40
2022-11-01T19:53:47.238Z,5.78
2022-11-01T19:58:56.319Z,5.80
2022-11-01T20:04:27.037Z,5.32
2022-11-01T20:09:35.100Z,5.03
2022-11-01T20:14:37.020Z,4.80
2022-11-01T20:19:38.711Z,6.15
2022-11-01T20:24:40.374Z,5.40
2022-11-01T20:29:42.020Z,5.20
2022-11-01T20:34:43.687Z,5.20
2022-11-01T20:39:45.431Z,4.80
2022-11-01T20:44:47.125Z,5.55
2022-11-01T20:49:48.778Z,5.13
2022-11-01T20:54:50.465Z,5.37
2022-11-01T20:59:52.159Z,5.10
2022-11-01T21:05:05.410Z,5.40
2022-11-01T21:10:45.509Z,5.05
2022-11-01T21:15:47.202Z,5.03
2022-11-01T21:20:49.418Z,5.43
2022-11-01T21:25:53.428Z,5.78
2022-11-01T21:30:57.481Z,5.43
2022-11-01T21:35:59.139Z,4.53
2022-11-01T21:41:02.242Z,5.30
2022-11-01T21:46:03.889Z,5.07
2022-11-01T21:51:05.759Z,5.35
2022-11-01T21:56:07.665Z,5.20
2022-11-01T22:01:09.408Z,5.18
2022-11-01T22:06:11.197Z,6.63
2022-11-01T22:11:12.885Z,5.50
2022-11-01T22:16:14.638Z,5.90
2022-11-01T22:21:16.292Z,6.20
2022-11-01T22:26:18.027Z,5.50
2022-11-01T22:31:20.175Z,5.40
2022-11-01T22:36:23.461Z,5.10
2022-11-01T22:41:33.078Z,4.87
2022-11-01T22:46:38.529Z,4.75
2022-11-01T22:51:44.114Z,5.93
2022-11-01T22:56:49.270Z,5.55
2022-11-01T23:02:03.940Z,5.72
2022-11-01T23:07:21.732Z,5.28
2022-11-01T23:12:24.250Z,4.85
2022-11-01T23:17:30.931Z,5.17
2022-11-01T23:22:35.364Z,5.00
2022-11-01T23:27:37.114Z,5.00
2022-11-01T23:32:38.794Z,5.28
2022-11-01T23:37:41.878Z,4.47
2022-11-01T23:42:43.791Z,4.95
2022-11-01T23:47:45.582Z,5.85
2022-11-01T23:52:52.912Z,4.88
2022-11-01T23:57:56.906Z,4.45
